MAY 29, 2017

 

METAR SMJP 292200Z VRB01KT 9999 FEW010 FEW018CB 26/24 Q1012 NOSIG=

METAR SMZO 292200Z 12005KT 9999 FEW010 FEW015CB SCT025 28/24 Q1012 NOSIG=

METAR SMNI 292200Z 12011KT 9999 FEW015 28/24 Q1013=